Time;durP1;ratioP1;P1;durP2;ratioP2;P2;SDS_P1;SDS_P2;PMS_P1;PMS_P2;Temp;Humidity;BMP_temperature;BMP_pressure;BME280_temperature;BME280_humidity;BME280_pressure;Samples;Min_cycle;Max_cycle;Signal;HPM_P1;HPM_P2
2022/02/04 00:02:39;;;;;;;5.00;4.10;;;;;;;;;;5049774;28;20410;-80
2022/02/04 00:20:45;;;;;;;5.67;3.43;;;;;;;;;;5039534;28;20575;-82
2022/02/04 00:28:16;;;;;;;8.13;3.57;;;;;;;;;;5039031;28;20859;-82
2022/02/04 00:30:48;;;;;;;5.60;3.77;;;;;;;;;;5040204;28;20449;-82
2022/02/04 00:33:15;;;;;;;6.00;3.67;;;;;;;;;;5042675;28;20493;-81
2022/02/04 00:38:25;;;;;;;9.10;4.03;;;;;;;;;;5036651;28;20411;-81
2022/02/04 00:40:57;;;;;;;5.63;3.13;;;;;;;;;;5035427;28;20481;-81
2022/02/04 00:43:23;;;;;;;6.93;3.57;;;;;;;;;;5037646;28;20383;-81
2022/02/04 00:45:57;;;;;;;5.60;2.97;;;;;;;;;;5037815;28;20410;-81
2022/02/04 00:51:01;;;;;;;5.63;2.77;;;;;;;;;;5038901;28;20415;-82
2022/02/04 00:56:23;;;;;;;4.20;3.27;;;;;;;;;;5037943;28;20383;-81
2022/02/04 01:26:06;;;;;;;4.77;2.90;;;;;;;;;;5037478;28;20457;-81
2022/02/04 01:28:33;;;;;;;3.90;2.87;;;;;;;;;;5037588;28;20417;-81
2022/02/04 01:30:59;;;;;;;4.50;3.00;;;;;;;;;;5037484;28;20493;-82
2022/02/04 01:33:27;;;;;;;4.93;3.23;;;;;;;;;;5038687;28;20449;-82
2022/02/04 01:35:55;;;;;;;5.07;3.27;;;;;;;;;;5038877;28;20402;-82
2022/02/04 01:38:21;;;;;;;3.83;2.83;;;;;;;;;;5037610;28;20443;-82
2022/02/04 01:40:47;;;;;;;3.30;2.53;;;;;;;;;;5038502;28;20442;-83
2022/02/04 01:43:16;;;;;;;6.20;3.40;;;;;;;;;;5038172;28;20398;-82
2022/02/04 01:45:42;;;;;;;4.30;3.23;;;;;;;;;;5037365;28;20426;-81
2022/02/04 01:48:08;;;;;;;3.83;2.53;;;;;;;;;;5037768;28;20417;-82
2022/02/04 01:50:35;;;;;;;4.13;2.60;;;;;;;;;;5038028;28;20433;-82
2022/02/04 01:53:02;;;;;;;4.03;3.50;;;;;;;;;;5038190;28;20494;-81
2022/02/04 01:55:28;;;;;;;3.63;3.03;;;;;;;;;;5038982;28;20407;-79
2022/02/04 01:57:54;;;;;;;5.03;3.73;;;;;;;;;;5041527;28;20394;-81
2022/02/04 02:00:20;;;;;;;4.23;3.07;;;;;;;;;;5040388;28;20498;-81
2022/02/04 02:02:46;;;;;;;4.13;3.30;;;;;;;;;;5040407;28;20411;-83
2022/02/04 02:05:12;;;;;;;4.47;3.20;;;;;;;;;;5040226;28;20402;-81
2022/02/04 02:07:45;;;;;;;5.23;3.97;;;;;;;;;;5039056;28;20498;-83
2022/02/04 02:10:14;;;;;;;4.43;2.90;;;;;;;;;;5039207;28;20490;-83
2022/02/04 02:50:22;;;;;;;4.80;3.83;;;;;;;;;;5043470;28;20524;-81
2022/02/04 03:00:46;;;;;;;7.17;4.77;;;;;;;;;;5054967;28;20496;-80
2022/02/04 03:03:14;;;;;;;5.50;4.37;;;;;;;;;;5047483;28;20405;-81
2022/02/04 03:05:40;;;;;;;8.07;5.03;;;;;;;;;;5043558;28;20394;-81
2022/02/04 03:08:07;;;;;;;5.07;4.47;;;;;;;;;;5043502;28;20406;-81
2022/02/04 03:10:33;;;;;;;4.93;3.77;;;;;;;;;;5043182;28;20507;-81
2022/02/04 03:12:59;;;;;;;5.20;3.97;;;;;;;;;;5043599;28;20438;-81
2022/02/04 03:15:25;;;;;;;9.70;4.37;;;;;;;;;;5043320;28;20394;-83
2022/02/04 03:18:02;;;;;;;5.00;4.07;;;;;;;;;;5042519;28;20399;-82
2022/02/04 03:20:29;;;;;;;5.63;3.93;;;;;;;;;;5042914;28;20462;-82
2022/02/04 03:22:57;;;;;;;6.00;4.17;;;;;;;;;;5041992;28;20441;-82
2022/02/04 03:25:24;;;;;;;4.73;3.90;;;;;;;;;;5043577;28;20406;-81
2022/02/04 03:27:55;;;;;;;6.00;4.20;;;;;;;;;;5043592;28;20473;-81
2022/02/04 03:30:29;;;;;;;4.20;3.60;;;;;;;;;;5048388;28;20426;-80
2022/02/04 03:33:00;;;;;;;5.70;4.80;;;;;;;;;;5055451;28;20454;-79
2022/02/04 03:35:26;;;;;;;8.00;4.80;;;;;;;;;;5044813;28;20399;-81
2022/02/04 03:37:53;;;;;;;6.20;5.10;;;;;;;;;;5041407;28;20938;-81
2022/02/04 03:40:20;;;;;;;7.43;5.23;;;;;;;;;;5058008;23;20611;-76
2022/02/04 03:42:46;;;;;;;7.87;5.20;;;;;;;;;;5033833;28;20485;-76
2022/02/04 03:45:13;;;;;;;10.20;5.63;;;;;;;;;;5035557;28;20423;-76
2022/02/04 03:47:39;;;;;;;6.23;4.50;;;;;;;;;;5035574;28;20417;-76
2022/02/04 03:50:05;;;;;;;6.83;5.60;;;;;;;;;;5035347;28;20464;-76
2022/02/04 03:52:31;;;;;;;7.33;5.23;;;;;;;;;;5035346;28;20415;-76
2022/02/04 03:54:57;;;;;;;8.83;5.77;;;;;;;;;;5035410;28;20391;-76
2022/02/04 03:57:23;;;;;;;6.07;5.10;;;;;;;;;;5031877;28;20490;-76
2022/02/04 03:59:49;;;;;;;9.13;5.83;;;;;;;;;;5023651;28;20458;-76
2022/02/04 04:02:15;;;;;;;8.27;5.80;;;;;;;;;;5015450;28;20404;-76
2022/02/04 04:04:42;;;;;;;9.60;5.90;;;;;;;;;;5015478;28;20741;-76
2022/02/04 04:07:08;;;;;;;6.77;5.13;;;;;;;;;;5014127;28;20454;-76
2022/02/04 04:09:38;;;;;;;8.50;5.40;;;;;;;;;;5015091;28;20423;-76
2022/02/04 04:12:04;;;;;;;14.20;6.27;;;;;;;;;;5015307;28;20494;-76
2022/02/04 04:14:30;;;;;;;7.03;5.10;;;;;;;;;;5013872;28;20412;-77
2022/02/04 04:16:56;;;;;;;6.70;5.40;;;;;;;;;;5015189;28;20408;-76
2022/02/04 04:19:22;;;;;;;8.00;6.07;;;;;;;;;;5013632;28;20975;-76
2022/02/04 04:21:48;;;;;;;9.17;5.30;;;;;;;;;;5014926;28;20408;-77
2022/02/04 04:24:14;;;;;;;7.50;5.60;;;;;;;;;;5014992;28;20475;-76
2022/02/04 04:26:41;;;;;;;9.23;6.93;;;;;;;;;;5014825;28;20414;-76
2022/02/04 04:29:07;;;;;;;9.33;7.03;;;;;;;;;;5015106;28;20895;-76
2022/02/04 04:31:34;;;;;;;10.20;6.97;;;;;;;;;;5014714;28;20986;-76
2022/02/04 04:34:00;;;;;;;7.87;6.43;;;;;;;;;;5014657;28;20888;-77
2022/02/04 04:36:26;;;;;;;10.03;6.50;;;;;;;;;;5013942;28;20427;-76
2022/02/04 04:39:11;;;;;;;8.30;6.13;;;;;;;;;;5014590;28;20498;-76
2022/02/04 04:42:06;;;;;;;10.63;6.90;;;;;;;;;;5014577;28;20419;-76
2022/02/04 04:45:01;;;;;;;10.80;7.23;;;;;;;;;;5014871;28;20384;-76
2022/02/04 05:31:17;;;;;;;15.27;10.40;;;;;;;;;;5013826;28;20444;-76
2022/02/04 05:33:43;;;;;;;13.97;10.50;;;;;;;;;;5013771;28;20407;-77
2022/02/04 05:36:10;;;;;;;17.43;12.30;;;;;;;;;;5014247;28;20414;-76
2022/02/04 05:38:37;;;;;;;16.40;11.13;;;;;;;;;;5014034;28;20514;-77
2022/02/04 05:41:06;;;;;;;15.87;11.37;;;;;;;;;;5013977;28;20466;-76
2022/02/04 05:43:35;;;;;;;16.97;11.30;;;;;;;;;;5013944;28;20529;-76
2022/02/04 05:46:12;;;;;;;14.47;10.40;;;;;;;;;;5013959;28;20411;-76
2022/02/04 05:48:42;;;;;;;16.77;11.77;;;;;;;;;;5013784;28;20388;-76
2022/02/04 06:24:34;;;;;;;15.43;11.00;;;;;;;;;;5013504;28;20380;-75
2022/02/04 06:27:00;;;;;;;16.60;11.70;;;;;;;;;;5013505;28;20740;-75
2022/02/04 06:29:26;;;;;;;19.07;11.93;;;;;;;;;;5013553;28;20411;-76
2022/02/04 06:31:52;;;;;;;16.97;10.83;;;;;;;;;;5013034;28;20491;-75
2022/02/04 06:34:18;;;;;;;15.47;10.67;;;;;;;;;;5013118;28;20793;-76
2022/02/04 06:36:44;;;;;;;18.20;12.30;;;;;;;;;;5013106;28;20407;-75
2022/02/04 06:39:11;;;;;;;18.63;11.80;;;;;;;;;;5011715;28;20451;-75
2022/02/04 06:41:37;;;;;;;19.17;12.73;;;;;;;;;;5013171;28;20938;-75
2022/02/04 06:44:03;;;;;;;18.70;12.50;;;;;;;;;;5013112;28;20491;-76
2022/02/04 06:46:30;;;;;;;18.77;12.33;;;;;;;;;;5013148;28;20398;-75
2022/02/04 06:48:56;;;;;;;16.57;11.93;;;;;;;;;;5011515;28;20422;-75
2022/02/04 06:51:22;;;;;;;17.93;12.90;;;;;;;;;;5012851;28;20427;-75
2022/02/04 06:53:48;;;;;;;18.20;12.90;;;;;;;;;;5013159;28;20824;-75
2022/02/04 06:56:15;;;;;;;21.03;13.10;;;;;;;;;;5011880;28;20419;-75
2022/02/04 06:58:41;;;;;;;18.67;11.90;;;;;;;;;;5013138;28;20527;-75
2022/02/04 07:01:07;;;;;;;20.93;13.63;;;;;;;;;;5013161;28;20423;-76
2022/02/04 07:03:34;;;;;;;18.37;12.43;;;;;;;;;;5013072;28;20428;-75
2022/02/04 07:06:02;;;;;;;17.30;12.53;;;;;;;;;;5012989;28;20821;-75
2022/02/04 07:21:35;;;;;;;18.90;13.37;;;;;;;;;;5016417;28;20792;-76
2022/02/04 07:24:01;;;;;;;19.67;13.07;;;;;;;;;;5016525;28;20395;-76
2022/02/04 07:26:30;;;;;;;24.53;12.00;;;;;;;;;;5016531;28;20416;-76
2022/02/04 07:28:57;;;;;;;19.43;12.57;;;;;;;;;;5016300;28;20438;-76
2022/02/04 07:31:26;;;;;;;21.83;13.23;;;;;;;;;;5016095;28;20423;-76
2022/02/04 07:34:05;;;;;;;18.03;12.43;;;;;;;;;;5016749;28;20931;-76
2022/02/04 07:41:52;;;;;;;20.13;11.97;;;;;;;;;;5036661;28;20459;-78
2022/02/04 07:44:18;;;;;;;15.83;11.97;;;;;;;;;;5036182;28;20403;-77
2022/02/04 07:46:44;;;;;;;22.57;11.50;;;;;;;;;;5034749;28;20414;-76
2022/02/04 07:49:12;;;;;;;17.23;13.03;;;;;;;;;;5034995;28;20429;-76
2022/02/04 07:51:40;;;;;;;19.33;12.63;;;;;;;;;;5033133;28;20434;-76
2022/02/04 07:54:06;;;;;;;14.23;11.10;;;;;;;;;;5037292;28;20411;-76
2022/02/04 07:56:33;;;;;;;14.63;11.23;;;;;;;;;;5034910;28;20442;-76
2022/02/04 07:59:05;;;;;;;15.50;11.70;;;;;;;;;;5036016;28;20481;-76
2022/02/04 08:01:31;;;;;;;17.17;12.02;;;;;;;;;;5030233;28;20425;-76
2022/02/04 08:04:09;;;;;;;16.90;13.13;;;;;;;;;;5025419;28;20176;-75
2022/02/04 08:06:43;;;;;;;17.40;11.90;;;;;;;;;;5028112;28;20415;-77
2022/02/04 08:09:25;;;;;;;15.83;11.80;;;;;;;;;;5023783;28;20409;-76
2022/02/04 09:02:14;;;;;;;18.03;12.97;;;;;;;;;;5022394;28;20406;-77
2022/02/04 09:04:44;;;;;;;16.55;12.43;;;;;;;;;;5028629;28;20481;-76
2022/02/04 09:07:17;;;;;;;14.93;11.83;;;;;;;;;;5043217;28;20175;-77
2022/02/04 09:09:53;;;;;;;18.50;12.43;;;;;;;;;;5035126;28;20443;-77
2022/02/04 09:18:32;;;;;;;16.50;12.70;;;;;;;;;;5033465;28;20428;-75
2022/02/04 09:23:21;;;;;;;14.83;11.40;;;;;;;;;;5032001;28;20413;-75
2022/02/04 09:25:47;;;;;;;12.37;10.50;;;;;;;;;;5030217;28;20423;-75
2022/02/04 09:28:13;;;;;;;14.23;10.93;;;;;;;;;;5032759;28;20418;-76
2022/02/04 09:30:39;;;;;;;17.23;11.70;;;;;;;;;;5028210;28;20463;-77
2022/02/04 09:33:05;;;;;;;15.80;13.10;;;;;;;;;;5029180;28;20433;-78
2022/02/04 09:35:32;;;;;;;16.50;11.97;;;;;;;;;;5022271;28;20418;-76
2022/02/04 09:37:58;;;;;;;13.80;10.70;;;;;;;;;;5029060;28;20415;-77
2022/02/04 09:40:24;;;;;;;14.20;11.30;;;;;;;;;;5026153;28;20528;-76
2022/02/04 09:42:51;;;;;;;14.37;10.83;;;;;;;;;;5038106;28;20418;-77
2022/02/04 09:45:19;;;;;;;12.63;9.80;;;;;;;;;;5023401;28;20426;-77
2022/02/04 09:47:49;;;;;;;12.57;10.03;;;;;;;;;;5028049;28;20918;-77
2022/02/04 09:50:19;;;;;;;14.20;11.00;;;;;;;;;;5029718;28;20465;-77
2022/02/04 10:17:59;;;;;;;9.93;8.33;;;;;;;;;;5025285;28;20506;-76
2022/02/04 10:20:25;;;;;;;13.60;8.87;;;;;;;;;;5030309;28;20458;-75
2022/02/04 10:22:51;;;;;;;11.90;9.10;;;;;;;;;;5029471;28;20427;-76
2022/02/04 10:25:18;;;;;;;14.90;8.90;;;;;;;;;;5028217;28;20490;-77
2022/02/04 10:27:46;;;;;;;12.63;8.10;;;;;;;;;;5028283;28;20493;-76
2022/02/04 10:30:13;;;;;;;11.07;8.27;;;;;;;;;;5026742;28;20446;-76
2022/02/04 10:32:40;;;;;;;11.40;8.77;;;;;;;;;;5029272;28;20424;-78
2022/02/04 10:35:19;;;;;;;10.17;8.57;;;;;;;;;;5030064;28;20451;-76
2022/02/04 10:38:04;;;;;;;12.03;7.87;;;;;;;;;;5029816;28;20426;-78
2022/02/04 10:40:43;;;;;;;14.23;8.77;;;;;;;;;;5034881;28;20982;-77
2022/02/04 10:43:28;;;;;;;11.67;8.27;;;;;;;;;;5032250;28;20399;-78
2022/02/04 10:46:09;;;;;;;12.70;8.10;;;;;;;;;;5037202;28;20513;-78
2022/02/04 10:52:25;;;;;;;10.10;7.80;;;;;;;;;;5030424;28;20513;-77
2022/02/04 11:10:33;;;;;;;10.50;8.07;;;;;;;;;;5029438;28;20834;-77
2022/02/04 11:35:11;;;;;;;11.07;7.40;;;;;;;;;;5033386;28;20402;-76
2022/02/04 11:52:08;;;;;;;11.30;7.37;;;;;;;;;;5032810;28;20406;-76
2022/02/04 11:54:40;;;;;;;11.77;7.60;;;;;;;;;;5035171;28;20452;-76
2022/02/04 11:57:06;;;;;;;8.13;6.70;;;;;;;;;;5033703;28;20413;-76
2022/02/04 11:59:33;;;;;;;7.90;6.70;;;;;;;;;;5030157;28;20462;-77
2022/02/04 12:01:59;;;;;;;8.20;6.33;;;;;;;;;;5026441;28;20955;-75
2022/02/04 12:04:25;;;;;;;10.20;7.53;;;;;;;;;;5028213;28;20414;-78
2022/02/04 12:06:53;;;;;;;12.20;8.00;;;;;;;;;;5031376;28;20914;-76
2022/02/04 12:09:36;;;;;;;9.97;8.13;;;;;;;;;;5029740;28;20418;-77
2022/02/04 12:12:02;;;;;;;14.77;8.90;;;;;;;;;;5031253;28;20461;-76
2022/02/04 12:14:32;;;;;;;11.63;7.50;;;;;;;;;;5031677;28;20419;-75
2022/02/04 12:17:06;;;;;;;9.43;7.83;;;;;;;;;;5031464;28;20993;-76
2022/02/04 12:19:58;;;;;;;10.00;6.80;;;;;;;;;;5022023;28;20526;-75
2022/02/04 12:23:03;;;;;;;8.83;7.00;;;;;;;;;;5035274;28;20481;-76
2022/02/04 12:25:48;;;;;;;9.70;7.20;;;;;;;;;;4971238;28;20460;-77
2022/02/04 12:28:34;;;;;;;13.20;7.80;;;;;;;;;;4963762;28;20440;-76
2022/02/04 12:31:05;;;;;;;10.20;7.50;;;;;;;;;;5016537;28;20455;-76
2022/02/04 12:33:39;;;;;;;9.40;7.27;;;;;;;;;;5021641;28;20418;-76
2022/02/04 12:36:05;;;;;;;10.90;7.30;;;;;;;;;;5027701;28;20829;-76
2022/02/04 12:38:31;;;;;;;10.73;8.10;;;;;;;;;;5027455;28;20437;-76
2022/02/04 12:40:58;;;;;;;10.73;7.03;;;;;;;;;;5033021;28;20485;-77
2022/02/04 12:43:27;;;;;;;8.93;6.63;;;;;;;;;;5028307;28;20785;-77
2022/02/04 12:45:53;;;;;;;9.10;6.80;;;;;;;;;;5032333;28;20477;-76
2022/02/04 12:48:19;;;;;;;10.37;7.40;;;;;;;;;;5030962;28;20965;-77
2022/02/04 12:50:55;;;;;;;12.73;7.70;;;;;;;;;;5027321;28;20470;-77
2022/02/04 12:53:28;;;;;;;8.97;6.90;;;;;;;;;;5034413;28;20488;-76
2022/02/04 12:56:14;;;;;;;10.17;8.60;;;;;;;;;;5027813;28;20457;-76
2022/02/04 12:59:09;;;;;;;17.70;8.70;;;;;;;;;;5028890;28;20937;-77
2022/02/04 13:09:56;;;;;;;10.80;7.77;;;;;;;;;;5030589;28;20437;-76
2022/02/04 13:12:22;;;;;;;13.07;8.37;;;;;;;;;;5025888;28;20492;-77
2022/02/04 13:14:49;;;;;;;11.97;8.30;;;;;;;;;;5027072;28;20517;-78
2022/02/04 13:17:28;;;;;;;10.23;7.67;;;;;;;;;;5038512;28;20467;-77
2022/02/04 13:19:55;;;;;;;10.57;7.40;;;;;;;;;;5032999;28;20472;-77
2022/02/04 13:22:21;;;;;;;12.30;7.80;;;;;;;;;;5037995;28;20415;-78
2022/02/04 13:25:03;;;;;;;15.20;8.10;;;;;;;;;;5034513;28;20419;-77
2022/02/04 13:27:29;;;;;;;12.80;7.90;;;;;;;;;;5039523;28;20426;-78
2022/02/04 13:29:55;;;;;;;9.67;7.70;;;;;;;;;;5028853;28;20453;-77
2022/02/04 13:32:25;;;;;;;12.63;7.73;;;;;;;;;;5029219;28;20777;-77
2022/02/04 13:34:52;;;;;;;9.07;7.77;;;;;;;;;;5028342;28;20426;-77
2022/02/04 13:37:31;;;;;;;10.00;7.50;;;;;;;;;;5031123;28;20446;-77
2022/02/04 13:40:07;;;;;;;9.63;7.47;;;;;;;;;;5033982;22;20499;-83
2022/02/04 13:42:42;;;;;;;11.80;6.93;;;;;;;;;;5015199;28;20416;-81
2022/02/04 13:45:43;;;;;;;7.90;7.03;;;;;;;;;;5007401;28;20415;-80
2022/02/04 13:48:21;;;;;;;12.63;7.87;;;;;;;;;;5009051;28;20417;-81
2022/02/04 13:51:11;;;;;;;10.60;7.53;;;;;;;;;;4999179;28;20431;-82
2022/02/04 13:53:50;;;;;;;9.73;7.03;;;;;;;;;;4995537;28;20467;-82
2022/02/04 13:56:47;;;;;;;8.70;7.30;;;;;;;;;;4990749;28;20518;-82
2022/02/04 13:59:22;;;;;;;11.00;7.37;;;;;;;;;;4989508;28;20464;-81
2022/02/04 14:01:56;;;;;;;12.07;7.37;;;;;;;;;;4987019;28;20429;-82
2022/02/04 14:04:23;;;;;;;8.77;6.63;;;;;;;;;;4988119;28;20497;-81
2022/02/04 14:06:49;;;;;;;11.03;7.17;;;;;;;;;;4982731;28;20440;-82
2022/02/04 14:09:19;;;;;;;10.63;8.00;;;;;;;;;;4983674;28;20516;-83
2022/02/04 14:11:45;;;;;;;16.20;7.10;;;;;;;;;;5005757;28;20432;-81
2022/02/04 14:14:13;;;;;;;9.13;6.83;;;;;;;;;;4994821;28;20662;-80
2022/02/04 14:16:41;;;;;;;12.70;7.27;;;;;;;;;;4989887;28;20434;-82
2022/02/04 14:19:07;;;;;;;9.63;7.50;;;;;;;;;;4987543;28;20475;-82
2022/02/04 14:21:34;;;;;;;12.60;7.20;;;;;;;;;;4990867;28;20424;-84
2022/02/04 14:24:07;;;;;;;10.27;6.80;;;;;;;;;;4989476;28;20916;-81
2022/02/04 14:26:38;;;;;;;10.37;6.93;;;;;;;;;;4991111;28;20409;-80
2022/02/04 14:29:07;;;;;;;9.87;7.77;;;;;;;;;;4991704;28;20465;-83
2022/02/04 14:37:04;;;;;;;10.77;7.68;;;;;;;;;;4985414;28;20480;-82
2022/02/04 15:01:23;;;;;;;7.93;6.10;;;;;;;;;;4984473;28;20412;-83
2022/02/04 15:04:06;;;;;;;9.05;6.22;;;;;;;;;;4992688;28;20444;-82
2022/02/04 15:06:36;;;;;;;8.00;6.53;;;;;;;;;;4990333;28;20186;-82
2022/02/04 15:09:08;;;;;;;10.97;8.00;;;;;;;;;;5007982;28;20459;-82
2022/02/04 15:11:35;;;;;;;8.97;7.20;;;;;;;;;;4989593;28;20421;-82
2022/02/04 15:14:04;;;;;;;8.27;6.70;;;;;;;;;;4983971;28;20439;-82
2022/02/04 15:16:39;;;;;;;8.63;6.90;;;;;;;;;;4987127;28;20952;-82
2022/02/04 15:19:05;;;;;;;7.43;6.40;;;;;;;;;;4989270;28;20479;-80
2022/02/04 15:21:32;;;;;;;8.93;7.13;;;;;;;;;;4994102;28;21765;-80
2022/02/04 15:23:59;;;;;;;7.60;6.80;;;;;;;;;;4988094;28;20424;-80
2022/02/04 15:26:27;;;;;;;9.23;6.33;;;;;;;;;;4987262;28;20452;-80
2022/02/04 15:29:14;;;;;;;10.33;6.30;;;;;;;;;;4988818;28;20416;-83
2022/02/04 15:31:44;;;;;;;9.97;7.07;;;;;;;;;;4983187;28;20424;-81
2022/02/04 15:34:12;;;;;;;13.40;7.27;;;;;;;;;;4989310;28;20464;-83
2022/02/04 15:36:44;;;;;;;8.93;6.83;;;;;;;;;;4991080;28;20413;-80
2022/02/04 15:39:12;;;;;;;8.73;6.33;;;;;;;;;;4994626;28;20554;-82
2022/02/04 15:41:39;;;;;;;9.53;6.53;;;;;;;;;;4989521;28;20445;-83
2022/02/04 15:55:08;;;;;;;8.23;6.63;;;;;;;;;;4991184;28;20427;-83
2022/02/04 16:04:57;;;;;;;9.20;7.27;;;;;;;;;;4985115;28;20459;-82
2022/02/04 16:07:24;;;;;;;12.07;6.33;;;;;;;;;;4989246;28;20812;-83
2022/02/04 16:09:59;;;;;;;10.20;7.93;;;;;;;;;;4995565;28;20507;-83
2022/02/04 16:12:32;;;;;;;9.70;7.20;;;;;;;;;;4989355;28;22021;-83
2022/02/04 16:15:07;;;;;;;9.23;6.60;;;;;;;;;;4995834;28;20420;-83
2022/02/04 16:17:37;;;;;;;9.43;6.90;;;;;;;;;;5001149;28;20417;-81
2022/02/04 16:20:17;;;;;;;12.37;8.20;;;;;;;;;;4994256;28;20468;-82
2022/02/04 16:30:58;;;;;;;8.90;6.30;;;;;;;;;;4950882;28;20542;-81
2022/02/04 16:33:24;;;;;;;10.60;7.00;;;;;;;;;;4954378;28;20434;-82
2022/02/04 16:35:50;;;;;;;7.53;5.87;;;;;;;;;;4974277;28;20787;-83
2022/02/04 16:38:18;;;;;;;12.20;7.93;;;;;;;;;;4995330;28;20452;-82
2022/02/04 16:40:46;;;;;;;12.00;8.20;;;;;;;;;;4992526;28;20467;-81
2022/02/04 16:43:15;;;;;;;10.10;7.50;;;;;;;;;;4996772;28;20429;-82
2022/02/04 16:45:42;;;;;;;9.30;6.93;;;;;;;;;;4987235;28;20417;-81
2022/02/04 16:48:08;;;;;;;10.97;7.87;;;;;;;;;;4995838;28;20447;-81
2022/02/04 16:50:34;;;;;;;10.70;7.53;;;;;;;;;;4985158;28;20479;-82
2022/02/04 16:53:00;;;;;;;9.93;7.60;;;;;;;;;;4985170;28;20464;-81
2022/02/04 16:55:26;;;;;;;12.27;8.50;;;;;;;;;;4990980;28;20428;-82
2022/02/04 16:57:54;;;;;;;11.63;8.97;;;;;;;;;;4988403;28;20425;-82
2022/02/04 17:00:22;;;;;;;11.83;8.00;;;;;;;;;;5002986;28;20471;-83
2022/02/04 17:02:52;;;;;;;11.80;7.40;;;;;;;;;;4986253;28;20424;-84
2022/02/04 17:05:21;;;;;;;11.03;8.50;;;;;;;;;;5008014;28;20495;-83
2022/02/04 17:07:55;;;;;;;9.23;6.97;;;;;;;;;;4988249;28;20423;-84
2022/02/04 17:10:28;;;;;;;13.23;7.83;;;;;;;;;;4987825;28;20925;-83
2022/02/04 17:13:01;;;;;;;11.13;8.20;;;;;;;;;;4991133;28;20428;-82
2022/02/04 17:15:31;;;;;;;9.10;7.70;;;;;;;;;;4996513;28;20451;-82
2022/02/04 17:17:57;;;;;;;12.90;8.20;;;;;;;;;;4997512;28;20779;-80
2022/02/04 17:20:23;;;;;;;12.03;8.93;;;;;;;;;;4997487;28;20459;-83
2022/02/04 17:22:49;;;;;;;12.50;7.80;;;;;;;;;;4998242;28;20488;-82
2022/02/04 17:25:16;;;;;;;13.23;8.37;;;;;;;;;;4990935;28;20917;-81
2022/02/04 17:27:43;;;;;;;10.80;7.77;;;;;;;;;;4988745;28;20445;-82
2022/02/04 17:30:11;;;;;;;14.03;9.23;;;;;;;;;;4986925;28;20463;-82
2022/02/04 17:32:42;;;;;;;8.57;7.40;;;;;;;;;;4997192;28;20494;-82
2022/02/04 17:35:09;;;;;;;13.03;7.63;;;;;;;;;;4996453;28;20445;-82
2022/02/04 17:37:36;;;;;;;11.27;7.87;;;;;;;;;;5002058;28;20428;-83
2022/02/04 17:40:04;;;;;;;10.90;8.20;;;;;;;;;;4988548;28;20465;-82
2022/02/04 17:42:31;;;;;;;12.80;8.03;;;;;;;;;;4994179;28;20436;-82
2022/02/04 17:44:57;;;;;;;13.10;8.50;;;;;;;;;;5002843;28;20413;-81
2022/02/04 17:47:26;;;;;;;12.80;8.93;;;;;;;;;;4997607;28;20563;-80
2022/02/04 17:50:03;;;;;;;15.73;8.33;;;;;;;;;;5004867;28;20204;-80
2022/02/04 17:52:41;;;;;;;12.65;8.50;;;;;;;;;;4998774;28;20420;-82
2022/02/04 17:55:13;;;;;;;10.70;7.77;;;;;;;;;;4999020;28;20166;-81
2022/02/04 18:02:44;;;;;;;11.90;8.50;;;;;;;;;;4990510;28;20413;-80
2022/02/04 18:07:54;;;;;;;12.90;7.87;;;;;;;;;;5004840;28;20412;-79
2022/02/04 18:10:21;;;;;;;12.43;7.77;;;;;;;;;;4984095;28;20445;-80
2022/02/04 18:12:47;;;;;;;8.87;7.33;;;;;;;;;;4978097;28;20413;-81
2022/02/04 18:15:14;;;;;;;11.27;7.73;;;;;;;;;;4978165;28;20409;-80
2022/02/04 18:17:40;;;;;;;11.23;8.30;;;;;;;;;;4978552;28;20396;-80
2022/02/04 18:20:06;;;;;;;7.90;6.13;;;;;;;;;;4978648;28;20504;-80
2022/02/04 18:22:33;;;;;;;10.03;7.30;;;;;;;;;;4977733;28;20504;-80
2022/02/04 18:24:59;;;;;;;8.03;6.50;;;;;;;;;;4975818;28;20437;-79
2022/02/04 18:27:25;;;;;;;7.63;6.33;;;;;;;;;;4979241;28;20413;-81
2022/02/04 18:29:54;;;;;;;7.80;5.77;;;;;;;;;;4976320;28;20439;-81
2022/02/04 18:32:22;;;;;;;13.53;6.93;;;;;;;;;;4976433;28;20893;-80
2022/02/04 18:34:49;;;;;;;8.67;7.10;;;;;;;;;;4976592;28;20409;-81
2022/02/04 18:37:15;;;;;;;8.13;6.33;;;;;;;;;;4976970;28;20464;-80
2022/02/04 18:40:12;;;;;;;8.20;6.20;;;;;;;;;;4977607;28;20472;-81
2022/02/04 18:42:59;;;;;;;5.57;4.73;;;;;;;;;;4993902;28;20410;-80
2022/02/04 18:45:28;;;;;;;6.40;4.20;;;;;;;;;;4980945;28;20379;-80
2022/02/04 18:48:01;;;;;;;8.60;3.47;;;;;;;;;;4980602;28;20407;-80
2022/02/04 18:50:49;;;;;;;5.10;3.90;;;;;;;;;;4980552;28;20949;-80
2022/02/04 18:58:23;;;;;;;5.37;2.30;;;;;;;;;;4981036;28;20393;-80
2022/02/04 19:00:52;;;;;;;3.00;2.10;;;;;;;;;;4980776;28;20461;-80
2022/02/04 19:03:24;;;;;;;2.57;1.90;;;;;;;;;;4993607;28;20451;-79
2022/02/04 19:06:30;;;;;;;2.97;2.20;;;;;;;;;;4979208;28;20393;-78
2022/02/04 19:08:48;;;;;;;3.13;2.13;;;;;;;;;;4977437;28;20424;-79
2022/02/04 19:11:18;;;;;;;2.37;1.90;;;;;;;;;;4997723;28;20409;-79
2022/02/04 19:13:55;;;;;;;2.80;2.07;;;;;;;;;;4983244;28;20420;-79
2022/02/04 19:19:15;;;;;;;2.70;1.80;;;;;;;;;;4982025;28;20484;-79
2022/02/04 19:21:52;;;;;;;3.23;1.70;;;;;;;;;;4997295;28;20412;-81
2022/02/04 19:24:20;;;;;;;2.93;2.50;;;;;;;;;;4982377;28;20397;-81
2022/02/04 19:26:46;;;;;;;3.00;2.10;;;;;;;;;;4981684;28;20484;-79
2022/02/04 19:29:12;;;;;;;3.23;2.03;;;;;;;;;;4981703;28;20448;-80
2022/02/04 19:31:49;;;;;;;3.67;2.33;;;;;;;;;;4982402;28;20865;-80
2022/02/04 19:34:15;;;;;;;3.50;2.10;;;;;;;;;;4981981;28;20412;-80
2022/02/04 19:36:41;;;;;;;4.03;2.17;;;;;;;;;;4981685;28;20853;-80
2022/02/04 19:41:59;;;;;;;2.77;2.00;;;;;;;;;;5032780;28;20490;-77
2022/02/04 19:44:27;;;;;;;2.40;1.73;;;;;;;;;;5038448;28;20409;-78
2022/02/04 19:46:58;;;;;;;2.43;1.43;;;;;;;;;;5038477;28;20395;-78
2022/02/04 19:49:28;;;;;;;2.37;1.50;;;;;;;;;;5038966;28;20465;-78
2022/02/04 20:24:49;;;;;;;1.90;1.40;;;;;;;;;;5024750;28;20406;-77
2022/02/04 20:27:15;;;;;;;2.67;1.00;;;;;;;;;;5041021;28;20812;-77
2022/02/04 20:29:41;;;;;;;1.70;1.20;;;;;;;;;;5041150;28;20418;-77
2022/02/04 20:32:07;;;;;;;19.07;2.50;;;;;;;;;;5040877;28;20398;-77
2022/02/04 20:34:34;;;;;;;2.83;1.37;;;;;;;;;;5040024;28;20541;-77
2022/02/04 20:37:00;;;;;;;2.47;1.10;;;;;;;;;;5040085;28;20407;-78
2022/02/04 20:39:42;;;;;;;1.50;1.30;;;;;;;;;;5043043;28;20478;-78
2022/02/04 20:42:08;;;;;;;1.93;1.10;;;;;;;;;;5042818;28;20394;-78
2022/02/04 20:44:34;;;;;;;1.60;1.20;;;;;;;;;;5042891;28;20402;-78
2022/02/04 20:47:00;;;;;;;1.60;1.20;;;;;;;;;;5043646;28;20461;-78
2022/02/04 20:49:26;;;;;;;2.90;1.17;;;;;;;;;;5042307;28;20913;-78
2022/02/04 20:51:52;;;;;;;2.33;1.30;;;;;;;;;;5043212;28;20414;-78
2022/02/04 20:54:18;;;;;;;3.47;1.60;;;;;;;;;;5043543;28;20406;-78
2022/02/04 20:56:44;;;;;;;1.73;1.10;;;;;;;;;;5044229;28;20406;-78
2022/02/04 20:59:10;;;;;;;1.70;1.47;;;;;;;;;;5043384;28;20465;-78
2022/02/04 21:01:36;;;;;;;2.20;1.60;;;;;;;;;;5038068;28;20421;-77
2022/02/04 21:04:07;;;;;;;2.23;1.40;;;;;;;;;;5037411;28;20752;-77
2022/02/04 21:06:46;;;;;;;1.80;1.40;;;;;;;;;;5039899;28;20394;-77
2022/02/04 21:15:03;;;;;;;2.07;1.50;;;;;;;;;;5038570;28;20820;-77
2022/02/04 21:17:34;;;;;;;2.30;1.53;;;;;;;;;;5041773;28;20391;-77
2022/02/04 21:20:00;;;;;;;1.93;1.40;;;;;;;;;;5041057;28;20550;-78
2022/02/04 21:22:27;;;;;;;2.97;2.07;;;;;;;;;;5040122;28;20403;-77
2022/02/04 21:24:53;;;;;;;2.87;1.83;;;;;;;;;;5040169;28;20415;-78
2022/02/04 21:27:19;;;;;;;2.70;1.73;;;;;;;;;;5044490;28;20918;-78
2022/02/04 21:29:45;;;;;;;2.67;2.17;;;;;;;;;;5040465;28;20430;-78
2022/02/04 21:32:12;;;;;;;3.03;2.37;;;;;;;;;;5040157;28;20407;-77
2022/02/04 21:37:09;;;;;;;3.17;2.23;;;;;;;;;;5039867;28;20417;-77
2022/02/04 21:39:44;;;;;;;3.40;2.07;;;;;;;;;;5040140;28;20488;-77
2022/02/04 21:42:18;;;;;;;2.50;2.00;;;;;;;;;;5039321;28;20401;-77
2022/02/04 21:44:46;;;;;;;4.17;2.50;;;;;;;;;;5040294;28;20383;-77
2022/02/04 21:47:20;;;;;;;2.80;2.37;;;;;;;;;;5039919;28;20407;-77
2022/02/04 21:49:49;;;;;;;2.40;1.97;;;;;;;;;;5040359;28;20851;-77
2022/02/04 21:52:16;;;;;;;3.90;2.50;;;;;;;;;;5039768;28;20498;-77
2022/02/04 21:54:42;;;;;;;2.83;2.40;;;;;;;;;;5038327;28;20900;-77
2022/02/04 21:57:08;;;;;;;2.20;1.73;;;;;;;;;;5040126;28;20421;-77
2022/02/04 21:59:34;;;;;;;3.60;2.13;;;;;;;;;;5039405;28;20465;-78
2022/02/04 22:02:00;;;;;;;2.80;2.30;;;;;;;;;;5040371;28;20823;-78
2022/02/04 22:04:26;;;;;;;3.73;2.50;;;;;;;;;;5039204;28;20407;-77
2022/02/04 22:06:55;;;;;;;3.70;3.10;;;;;;;;;;5040042;28;20402;-77
2022/02/04 22:09:30;;;;;;;4.43;2.67;;;;;;;;;;5039480;28;20410;-78
2022/02/04 22:15:00;;;;;;;3.97;2.80;;;;;;;;;;5040072;28;20414;-77
2022/02/04 22:17:45;;;;;;;3.40;2.53;;;;;;;;;;5040914;28;20386;-77
2022/02/04 22:22:57;;;;;;;3.97;3.43;;;;;;;;;;5041109;28;20429;-77
2022/02/04 22:25:27;;;;;;;6.83;3.20;;;;;;;;;;5041727;28;20395;-77
2022/02/04 22:27:53;;;;;;;4.43;3.10;;;;;;;;;;5041092;28;20429;-78
2022/02/04 22:30:19;;;;;;;4.20;2.93;;;;;;;;;;5041240;28;20418;-78
2022/02/04 22:32:50;;;;;;;3.77;3.03;;;;;;;;;;5040846;28;20442;-78
2022/02/04 22:53:54;;;;;;;5.03;3.60;;;;;;;;;;5042929;28;20830;-77
2022/02/04 22:58:51;;;;;;;6.20;4.17;;;;;;;;;;5043084;28;20406;-77